createdAt,value
2018-05-10T00:02:23.180Z,15.93
2018-05-10T00:04:50.592Z,13.30
2018-05-10T00:07:18.020Z,13.87
2018-05-10T00:09:45.430Z,11.77
2018-05-10T00:12:12.863Z,12.97
2018-05-10T00:14:40.296Z,11.70
2018-05-10T00:17:07.713Z,12.57
2018-05-10T00:19:35.222Z,14.50
2018-05-10T00:22:03.369Z,13.27
2018-05-10T00:24:30.868Z,14.07
2018-05-10T00:26:58.321Z,11.53
2018-05-10T00:29:25.782Z,11.80
2018-05-10T00:31:53.202Z,11.53
2018-05-10T00:34:20.612Z,10.37
2018-05-10T00:36:48.042Z,11.40
2018-05-10T00:39:15.472Z,11.37
2018-05-10T00:41:42.888Z,13.37
2018-05-10T00:44:10.326Z,11.97
2018-05-10T00:46:37.745Z,14.17
2018-05-10T00:49:05.157Z,12.10
2018-05-10T00:51:32.587Z,13.63
2018-05-10T00:53:59.992Z,11.43
2018-05-10T00:56:27.394Z,12.07
2018-05-10T00:58:54.817Z,12.03
2018-05-10T01:01:22.224Z,11.70
2018-05-10T01:03:49.649Z,12.90
2018-05-10T01:06:17.048Z,10.73
2018-05-10T01:08:44.474Z,10.90
2018-05-10T01:11:11.897Z,12.37
2018-05-10T01:13:39.298Z,11.77
2018-05-10T01:16:06.720Z,10.80
2018-05-10T01:18:34.150Z,11.33
2018-05-10T01:21:01.554Z,12.03
2018-05-10T01:23:28.981Z,13.27
2018-05-10T01:25:56.384Z,11.27
2018-05-10T01:28:23.836Z,11.93
2018-05-10T01:30:51.249Z,11.53
2018-05-10T01:33:18.679Z,13.83
2018-05-10T01:35:57.787Z,11.60
2018-05-10T01:38:25.224Z,10.70
2018-05-10T01:40:52.660Z,10.13
2018-05-10T01:43:20.055Z,11.73
2018-05-10T01:45:47.487Z,11.03
2018-05-10T01:48:14.902Z,12.10
2018-05-10T01:50:42.308Z,13.33
2018-05-10T01:53:09.741Z,11.23
2018-05-10T01:55:37.143Z,10.90
2018-05-10T01:58:04.570Z,13.00
2018-05-10T02:00:31.987Z,11.10
2018-05-10T02:02:59.408Z,15.27
2018-05-10T02:05:26.824Z,14.67
2018-05-10T02:07:54.257Z,15.50
2018-05-10T02:10:21.666Z,12.20
2018-05-10T02:12:49.084Z,13.50
2018-05-10T02:15:16.505Z,11.23
2018-05-10T02:17:43.902Z,10.87
2018-05-10T02:20:11.327Z,12.83
2018-05-10T02:22:38.767Z,16.30
2018-05-10T02:25:06.176Z,14.73
2018-05-10T02:27:33.584Z,10.77
2018-05-10T02:30:01.009Z,14.77
2018-05-10T02:32:28.414Z,15.03
2018-05-10T02:34:55.853Z,14.20
2018-05-10T02:37:23.271Z,15.13
2018-05-10T02:39:50.698Z,12.00
2018-05-10T02:42:18.108Z,14.83
2018-05-10T02:44:45.543Z,20.13
2018-05-10T02:47:12.954Z,17.73
2018-05-10T02:49:40.369Z,13.17
2018-05-10T02:52:07.791Z,12.67
2018-05-10T02:54:35.204Z,12.90
2018-05-10T02:57:02.615Z,12.93
2018-05-10T02:59:30.052Z,13.10
2018-05-10T03:01:57.452Z,13.87
2018-05-10T03:04:24.852Z,11.93
2018-05-10T03:06:52.276Z,14.73
2018-05-10T03:09:19.681Z,11.63
2018-05-10T03:11:47.112Z,14.27
2018-05-10T03:14:14.516Z,14.13
2018-05-10T03:16:41.919Z,13.20
2018-05-10T03:19:09.344Z,12.67
2018-05-10T03:21:36.789Z,17.83
2018-05-10T03:24:04.228Z,13.80
2018-05-10T03:26:31.651Z,12.97
2018-05-10T03:28:59.064Z,12.63
2018-05-10T03:31:26.498Z,14.33
2018-05-10T03:33:53.907Z,13.97
2018-05-10T03:36:21.306Z,18.30
2018-05-10T03:38:48.726Z,13.97
2018-05-10T03:41:16.179Z,15.87
2018-05-10T03:43:43.575Z,20.83
2018-05-10T03:46:10.991Z,15.87
2018-05-10T03:48:38.392Z,14.80
2018-05-10T03:51:05.815Z,15.43
2018-05-10T03:53:33.212Z,15.40
2018-05-10T03:56:00.616Z,16.90
2018-05-10T03:58:28.039Z,13.63
2018-05-10T04:00:55.448Z,12.63
2018-05-10T04:06:35.295Z,12.27
2018-05-10T04:09:14.644Z,13.83
2018-05-10T04:11:42.049Z,12.60
2018-05-10T04:14:09.714Z,14.23
2018-05-10T04:16:37.115Z,13.50
2018-05-10T04:19:04.520Z,11.57
2018-05-10T04:21:31.952Z,13.37
2018-05-10T04:23:59.358Z,13.57
2018-05-10T04:26:26.789Z,11.50
2018-05-10T04:28:54.205Z,13.70
2018-05-10T04:31:21.634Z,13.63
2018-05-10T04:33:49.058Z,12.30
2018-05-10T04:36:16.467Z,14.77
2018-05-10T04:38:43.880Z,18.00
2018-05-10T04:41:11.284Z,19.60
2018-05-10T04:43:38.704Z,16.03
2018-05-10T04:46:06.126Z,17.97
2018-05-10T04:48:33.553Z,25.63
2018-05-10T04:51:00.951Z,23.57
2018-05-10T04:53:28.355Z,27.50
2018-05-10T04:55:55.775Z,27.17
2018-05-10T04:58:23.175Z,26.77
2018-05-10T05:00:50.599Z,29.07
2018-05-10T05:03:18.036Z,24.73
2018-05-10T05:05:45.825Z,26.20
2018-05-10T05:08:13.228Z,30.47
2018-05-10T05:10:40.664Z,39.95
2018-05-10T05:13:08.331Z,33.72
2018-05-10T05:15:35.736Z,38.05
2018-05-10T05:18:03.142Z,40.72
2018-05-10T05:20:30.565Z,39.75
2018-05-10T05:22:57.980Z,38.40
2018-05-10T05:25:25.395Z,47.20
2018-05-10T05:27:52.799Z,44.70
2018-05-10T05:30:20.224Z,49.63
2018-05-10T05:32:47.652Z,48.67
2018-05-10T05:35:15.032Z,52.50
2018-05-10T05:37:42.452Z,55.25
2018-05-10T05:40:09.863Z,48.85
2018-05-10T05:42:37.279Z,54.40
2018-05-10T05:45:04.683Z,54.67
2018-05-10T05:47:32.105Z,53.95
2018-05-10T05:49:59.508Z,54.72
2018-05-10T05:52:27.021Z,53.47
2018-05-10T05:54:54.451Z,59.13
2018-05-10T05:57:21.824Z,55.35
2018-05-10T05:59:49.242Z,55.40
2018-05-10T06:02:16.660Z,52.45
2018-05-10T06:04:44.072Z,55.50
2018-05-10T06:07:11.476Z,55.20
2018-05-10T06:09:38.885Z,55.25
2018-05-10T06:12:06.304Z,58.53
2018-05-10T06:14:33.710Z,57.38
2018-05-10T06:17:01.176Z,52.72
2018-05-10T06:19:28.531Z,56.25
2018-05-10T06:21:55.948Z,58.85
2018-05-10T06:24:23.360Z,55.15
2018-05-10T06:26:50.775Z,57.42
2018-05-10T06:29:18.181Z,60.92
2018-05-10T06:31:45.596Z,63.95
2018-05-10T06:34:13.009Z,60.55
2018-05-10T06:36:40.406Z,62.15
2018-05-10T06:39:07.843Z,66.53
2018-05-10T06:41:35.276Z,70.00
2018-05-10T06:44:02.667Z,67.80
2018-05-10T06:46:30.097Z,66.93
2018-05-10T06:48:57.514Z,69.73
2018-05-10T06:51:24.920Z,67.17
2018-05-10T06:53:52.344Z,72.43
2018-05-10T06:56:19.743Z,66.20
2018-05-10T06:58:47.152Z,67.00
2018-05-10T07:01:14.564Z,68.83
2018-05-10T07:03:41.986Z,69.87
2018-05-10T07:06:09.413Z,75.20
2018-05-10T07:08:36.821Z,72.23
2018-05-10T07:11:04.224Z,72.77
2018-05-10T07:13:31.645Z,68.40
2018-05-10T07:15:59.047Z,71.90
2018-05-10T07:18:26.467Z,66.63
2018-05-10T07:20:53.874Z,63.40
2018-05-10T07:23:21.291Z,62.83
2018-05-10T07:25:48.699Z,71.87
2018-05-10T07:28:16.132Z,71.10
2018-05-10T07:30:43.536Z,64.10
2018-05-10T07:33:10.951Z,60.67
2018-05-10T07:35:38.358Z,58.50
2018-05-10T07:38:05.759Z,60.43
2018-05-10T07:40:33.184Z,58.07
2018-05-10T07:43:00.595Z,66.40
2018-05-10T07:45:28.024Z,58.33
2018-05-10T07:47:55.426Z,56.67
2018-05-10T07:50:22.845Z,53.30
2018-05-10T07:52:50.252Z,52.33
2018-05-10T07:55:17.672Z,49.47
2018-05-10T07:57:45.080Z,46.67
2018-05-10T08:00:12.489Z,51.17
2018-05-10T08:02:40.189Z,47.15
2018-05-10T08:05:07.598Z,46.95
2018-05-10T08:07:35.001Z,45.97
2018-05-10T08:10:02.508Z,42.55
2018-05-10T08:12:30.264Z,42.80
2018-05-10T08:14:57.664Z,41.08
2018-05-10T08:17:25.078Z,39.05
2018-05-10T08:19:52.494Z,44.35
2018-05-10T08:22:19.914Z,39.03
2018-05-10T08:24:47.349Z,37.03
2018-05-10T08:27:14.751Z,39.00
2018-05-10T08:29:48.869Z,33.53
2018-05-10T08:32:16.281Z,32.92
2018-05-10T08:34:43.699Z,32.15
2018-05-10T08:37:11.104Z,31.80
2018-05-10T08:39:38.517Z,29.02
2018-05-10T08:42:05.932Z,28.62
2018-05-10T08:44:33.335Z,30.27
2018-05-10T08:47:00.755Z,28.65
2018-05-10T08:49:28.169Z,30.08
2018-05-10T08:51:55.660Z,25.52
2018-05-10T08:54:23.045Z,26.90
2018-05-10T08:56:50.471Z,22.98
2018-05-10T08:59:17.871Z,24.77
2018-05-10T09:01:45.292Z,24.45
2018-05-10T09:04:12.719Z,23.42
2018-05-10T09:06:40.125Z,24.83
2018-05-10T09:09:07.544Z,25.92
2018-05-10T09:11:34.972Z,22.70
2018-05-10T09:14:02.391Z,21.42
2018-05-10T09:16:29.843Z,23.45
2018-05-10T09:18:57.265Z,22.17
2018-05-10T09:21:24.669Z,21.10
2018-05-10T09:23:52.116Z,21.17
2018-05-10T09:29:02.775Z,22.25
2018-05-10T09:31:30.214Z,21.52
2018-05-10T09:33:57.684Z,20.30
2018-05-10T09:36:25.428Z,21.58
2018-05-10T09:38:52.836Z,19.25
2018-05-10T09:41:20.243Z,20.58
2018-05-10T09:43:47.663Z,20.75
2018-05-10T09:46:15.551Z,20.12
2018-05-10T09:48:43.089Z,22.40
2018-05-10T09:51:10.832Z,21.42
2018-05-10T09:53:38.268Z,21.98
2018-05-10T09:56:05.676Z,22.35
2018-05-10T09:58:33.140Z,21.77
2018-05-10T10:01:00.717Z,20.03
2018-05-10T10:03:28.388Z,20.27
2018-05-10T10:05:55.908Z,19.00
2018-05-10T10:08:23.624Z,19.43
2018-05-10T10:10:51.061Z,18.50
2018-05-10T10:13:18.465Z,15.60
2018-05-10T10:15:45.911Z,14.38
2018-05-10T10:18:13.315Z,15.55
2018-05-10T10:20:40.784Z,13.75
2018-05-10T10:23:08.189Z,14.55
2018-05-10T10:25:35.606Z,13.18
2018-05-10T10:28:03.499Z,13.40
2018-05-10T10:30:31.026Z,13.45
2018-05-10T10:32:58.622Z,13.30
2018-05-10T10:35:26.046Z,13.02
2018-05-10T10:37:53.605Z,13.45
2018-05-10T10:40:21.055Z,14.10
2018-05-10T10:42:48.468Z,15.80
2018-05-10T10:45:15.972Z,14.38
2018-05-10T10:47:43.608Z,14.40
2018-05-10T10:50:11.056Z,16.02
2018-05-10T10:52:38.461Z,14.50
2018-05-10T10:55:06.149Z,15.85
2018-05-10T10:57:33.575Z,15.77
2018-05-10T11:00:01.058Z,16.27
2018-05-10T11:02:28.409Z,17.65
2018-05-10T11:04:56.159Z,17.87
2018-05-10T11:07:23.600Z,18.65
2018-05-10T11:09:51.009Z,19.17
2018-05-10T11:12:18.812Z,18.27
2018-05-10T11:14:46.465Z,22.23
2018-05-10T11:17:13.940Z,20.60
2018-05-10T11:19:41.726Z,20.67
2018-05-10T11:22:09.137Z,21.40
2018-05-10T11:24:36.542Z,19.77
2018-05-10T11:27:03.972Z,22.93
2018-05-10T11:29:31.460Z,22.03
2018-05-10T11:31:58.801Z,23.20
2018-05-10T11:34:26.215Z,21.57
2018-05-10T11:36:53.921Z,21.37
2018-05-10T11:39:21.958Z,17.27
2018-05-10T11:41:49.513Z,16.57
2018-05-10T11:44:16.908Z,17.17
2018-05-10T11:46:44.436Z,15.97
2018-05-10T11:49:11.840Z,15.37
2018-05-10T11:51:39.573Z,15.23
2018-05-10T11:54:06.972Z,15.13
2018-05-10T11:56:34.383Z,13.07
2018-05-10T11:59:01.805Z,13.17
2018-05-10T12:01:29.224Z,14.40
2018-05-10T12:03:56.707Z,14.93
2018-05-10T12:06:24.275Z,15.47
2018-05-10T12:08:51.703Z,13.80
2018-05-10T12:11:19.496Z,14.23
2018-05-10T12:13:46.933Z,14.23
2018-05-10T12:16:14.353Z,14.33
2018-05-10T12:18:41.785Z,14.23
2018-05-10T12:21:09.181Z,13.73
2018-05-10T12:23:36.607Z,14.80
2018-05-10T12:26:04.007Z,15.57
2018-05-10T12:28:31.463Z,16.47
2018-05-10T12:30:58.962Z,16.30
2018-05-10T12:33:26.316Z,16.37
2018-05-10T12:35:53.763Z,17.63
2018-05-10T12:38:21.178Z,18.90
2018-05-10T12:40:48.581Z,19.47
2018-05-10T12:43:15.999Z,18.00
2018-05-10T12:45:43.425Z,18.83
2018-05-10T12:48:10.844Z,19.60
2018-05-10T12:50:38.251Z,23.63
2018-05-10T12:53:05.678Z,20.23
2018-05-10T12:55:33.088Z,21.60
2018-05-10T12:58:00.779Z,22.00
2018-05-10T13:00:28.193Z,21.00
2018-05-10T13:02:55.667Z,21.17
2018-05-10T13:05:23.025Z,19.87
2018-05-10T13:07:50.432Z,18.33
2018-05-10T13:10:17.860Z,19.50
2018-05-10T13:12:45.268Z,19.03
2018-05-10T13:15:12.692Z,19.33
2018-05-10T13:17:40.100Z,17.93
2018-05-10T13:20:07.531Z,18.70
2018-05-10T13:22:34.953Z,19.93
2018-05-10T13:25:02.692Z,17.83
2018-05-10T13:27:30.100Z,23.43
2018-05-10T13:29:57.507Z,19.33
2018-05-10T13:32:24.935Z,21.47
2018-05-10T13:34:52.348Z,19.93
2018-05-10T13:37:20.070Z,19.57
2018-05-10T13:39:47.473Z,21.83
2018-05-10T13:42:14.876Z,21.27
2018-05-10T13:44:42.307Z,23.93
2018-05-10T13:47:09.824Z,22.57
2018-05-10T13:49:37.141Z,20.47
2018-05-10T13:52:04.563Z,18.57
2018-05-10T13:54:31.984Z,18.73
2018-05-10T13:56:59.401Z,16.50
2018-05-10T13:59:26.810Z,21.47
2018-05-10T14:01:54.232Z,15.47
2018-05-10T14:04:21.641Z,19.00
2018-05-10T14:06:49.072Z,19.70
2018-05-10T14:09:16.478Z,19.37
2018-05-10T14:11:43.914Z,15.70
2018-05-10T14:14:11.320Z,18.80
2018-05-10T14:16:38.779Z,17.90
2018-05-10T14:19:06.270Z,15.33
2018-05-10T14:21:33.681Z,16.17
2018-05-10T14:24:01.104Z,15.07
2018-05-10T14:26:28.521Z,16.13
2018-05-10T14:28:55.952Z,16.33
2018-05-10T14:31:23.357Z,15.73
2018-05-10T14:33:50.776Z,16.57
2018-05-10T14:36:18.183Z,16.17
2018-05-10T14:38:45.594Z,16.80
2018-05-10T14:41:13.025Z,15.90
2018-05-10T14:43:40.433Z,14.73
2018-05-10T14:46:07.913Z,15.00
2018-05-10T14:48:35.352Z,16.50
2018-05-10T14:51:02.987Z,12.53
2018-05-10T14:53:30.977Z,11.17
2018-05-10T14:55:58.384Z,14.57
2018-05-10T14:58:26.115Z,18.20
2018-05-10T15:00:53.520Z,13.90
2018-05-10T15:03:20.925Z,10.60
2018-05-10T15:05:48.349Z,10.00
2018-05-10T15:08:15.752Z,10.23
2018-05-10T15:10:43.291Z,17.13
2018-05-10T15:13:10.688Z,11.90
2018-05-10T15:15:38.141Z,12.60
2018-05-10T15:18:05.524Z,12.23
2018-05-10T15:20:32.951Z,12.23
2018-05-10T15:23:00.357Z,10.73
2018-05-10T15:25:28.192Z,12.93
2018-05-10T15:27:55.612Z,9.70
2018-05-10T15:30:23.081Z,11.93
2018-05-10T15:32:51.728Z,15.07
2018-05-10T15:35:19.208Z,21.90
2018-05-10T15:37:46.633Z,12.80
2018-05-10T15:40:14.045Z,15.77
2018-05-10T15:42:41.925Z,14.90
2018-05-10T15:45:09.401Z,15.27
2018-05-10T15:47:36.828Z,11.23
2018-05-10T15:50:04.260Z,12.50
2018-05-10T15:52:31.669Z,11.77
2018-05-10T15:54:59.107Z,13.60
2018-05-10T15:57:26.883Z,12.70
2018-05-10T15:59:54.627Z,14.80
2018-05-10T16:02:22.247Z,14.70
2018-05-10T16:04:49.673Z,12.13
2018-05-10T16:07:17.100Z,11.30
2018-05-10T16:09:44.510Z,13.87
2018-05-10T16:12:12.297Z,23.70
2018-05-10T16:14:39.879Z,16.00
2018-05-10T16:17:07.341Z,13.57
2018-05-10T16:19:35.096Z,15.10
2018-05-10T16:22:03.147Z,16.10
2018-05-10T16:24:30.556Z,14.30
2018-05-10T16:26:58.003Z,15.90
2018-05-10T16:29:25.866Z,16.53
2018-05-10T16:31:53.301Z,16.07
2018-05-10T16:34:20.748Z,12.37
2018-05-10T16:36:48.199Z,13.13
2018-05-10T16:39:15.637Z,13.40
2018-05-10T16:41:43.100Z,13.50
2018-05-10T16:44:10.512Z,11.40
2018-05-10T16:46:37.940Z,12.20
2018-05-10T16:49:05.362Z,14.90
2018-05-10T16:51:32.776Z,11.07
2018-05-10T16:54:00.224Z,15.27
2018-05-10T16:56:27.803Z,16.23
2018-05-10T16:58:55.506Z,16.37
2018-05-10T17:01:22.909Z,12.70
2018-05-10T17:03:50.339Z,14.27
2018-05-10T17:06:17.764Z,13.40
2018-05-10T17:08:45.192Z,14.13
2018-05-10T17:11:12.864Z,13.30
2018-05-10T17:13:40.288Z,13.83
2018-05-10T17:16:07.720Z,13.50
2018-05-10T17:18:35.339Z,11.43
2018-05-10T17:21:03.703Z,12.53
2018-05-10T17:23:32.081Z,14.47
2018-05-10T17:25:59.624Z,16.47
2018-05-10T17:28:27.055Z,15.03
2018-05-10T17:30:54.586Z,13.60
2018-05-10T17:33:21.871Z,14.70
2018-05-10T17:35:49.515Z,14.13
2018-05-10T17:38:16.928Z,14.30
2018-05-10T17:40:44.361Z,19.30
2018-05-10T17:43:11.981Z,15.63
2018-05-10T17:45:39.586Z,15.93
2018-05-10T17:48:07.109Z,18.07
2018-05-10T17:50:34.457Z,13.40
2018-05-10T17:53:01.885Z,14.27
2018-05-10T17:55:29.288Z,15.57
2018-05-10T17:57:56.740Z,14.57
2018-05-10T18:00:24.148Z,15.87
2018-05-10T18:02:51.607Z,18.13
2018-05-10T18:05:19.033Z,14.20
2018-05-10T18:07:46.455Z,15.30
2018-05-10T18:10:13.873Z,15.30
2018-05-10T18:12:41.293Z,15.13
2018-05-10T18:15:08.968Z,16.00
2018-05-10T18:17:36.596Z,18.20
2018-05-10T18:20:04.005Z,19.10
2018-05-10T18:22:31.440Z,15.77
2018-05-10T18:24:58.852Z,17.17
2018-05-10T18:27:26.284Z,17.23
2018-05-10T18:29:53.746Z,16.10
2018-05-10T18:32:21.334Z,16.70
2018-05-10T18:34:48.740Z,17.73
2018-05-10T18:37:16.310Z,18.00
2018-05-10T18:39:43.723Z,17.87
2018-05-10T18:42:11.131Z,16.77
2018-05-10T18:44:38.928Z,17.33
2018-05-10T18:47:06.371Z,17.77
2018-05-10T18:49:33.772Z,19.13
2018-05-10T18:52:01.198Z,20.97
2018-05-10T18:54:28.696Z,17.47
2018-05-10T18:56:56.152Z,19.43
2018-05-10T18:59:23.784Z,16.13
2018-05-10T19:01:51.295Z,17.80
2018-05-10T19:04:18.643Z,21.50
2018-05-10T19:06:46.064Z,16.93
2018-05-10T19:09:13.516Z,18.93
2018-05-10T19:11:40.930Z,21.37
2018-05-10T19:14:08.392Z,19.00
2018-05-10T19:16:35.801Z,17.63
2018-05-10T19:19:03.219Z,19.47
2018-05-10T19:21:30.632Z,17.43
2018-05-10T19:23:58.345Z,18.37
2018-05-10T19:26:25.933Z,15.60
2018-05-10T19:28:53.375Z,21.43
2018-05-10T19:31:21.486Z,15.27
2018-05-10T19:33:48.947Z,16.50
2018-05-10T19:36:16.428Z,15.27
2018-05-10T19:38:43.844Z,14.90
2018-05-10T19:41:11.311Z,12.67
2018-05-10T19:43:38.723Z,13.30
2018-05-10T19:46:06.162Z,14.67
2018-05-10T19:48:33.733Z,15.23
2018-05-10T19:51:01.128Z,15.60
2018-05-10T19:53:28.575Z,15.07
2018-05-10T19:55:56.014Z,16.93
2018-05-10T19:58:23.482Z,15.73
2018-05-10T20:00:50.888Z,14.40
2018-05-10T20:03:19.940Z,15.03
2018-05-10T20:05:47.425Z,18.20
2018-05-10T20:08:14.909Z,15.73
2018-05-10T20:10:42.380Z,13.77
2018-05-10T20:13:09.836Z,13.90
2018-05-10T20:15:37.945Z,15.03
2018-05-10T20:18:05.383Z,14.03
2018-05-10T20:20:36.917Z,14.73
2018-05-10T20:23:10.463Z,14.27
2018-05-10T20:25:38.398Z,16.27
2018-05-10T20:28:06.690Z,13.93
2018-05-10T20:30:35.085Z,16.50
2018-05-10T20:33:04.331Z,17.10
2018-05-10T20:35:31.757Z,19.07
2018-05-10T20:37:59.185Z,14.00
2018-05-10T20:40:26.631Z,15.07
2018-05-10T20:42:54.109Z,15.47
2018-05-10T20:45:21.529Z,15.07
2018-05-10T20:47:48.954Z,12.20
2018-05-10T20:50:16.356Z,12.67
2018-05-10T20:52:43.793Z,16.07
2018-05-10T20:55:11.584Z,12.53
2018-05-10T20:57:38.876Z,15.93
2018-05-10T21:00:06.308Z,11.70
2018-05-10T21:02:33.711Z,15.87
2018-05-10T21:05:01.145Z,14.40
2018-05-10T21:07:28.548Z,14.00
2018-05-10T21:09:56.051Z,11.77
2018-05-10T21:12:35.288Z,12.13
2018-05-10T21:15:02.732Z,13.40
2018-05-10T21:17:30.143Z,11.50
2018-05-10T21:19:57.547Z,13.47
2018-05-10T21:22:24.975Z,15.33
2018-05-10T21:24:52.392Z,13.23
2018-05-10T21:27:19.813Z,11.67
2018-05-10T21:29:47.223Z,11.07
2018-05-10T21:32:14.656Z,14.13
2018-05-10T21:34:42.068Z,14.33
2018-05-10T21:37:09.495Z,12.87
2018-05-10T21:39:36.924Z,13.93
2018-05-10T21:42:04.332Z,11.33
2018-05-10T21:44:31.762Z,12.40
2018-05-10T21:46:59.170Z,12.63
2018-05-10T21:49:38.340Z,16.77
2018-05-10T21:52:05.743Z,13.57
2018-05-10T21:54:33.173Z,15.47
2018-05-10T21:57:00.578Z,17.57
2018-05-10T21:59:27.988Z,16.40
2018-05-10T22:01:55.413Z,13.90
2018-05-10T22:04:22.835Z,12.83
2018-05-10T22:06:50.259Z,14.27
2018-05-10T22:09:17.710Z,15.20
2018-05-10T22:11:45.112Z,16.20
2018-05-10T22:14:12.540Z,16.50
2018-05-10T22:16:39.955Z,15.33
2018-05-10T22:19:07.376Z,16.23
2018-05-10T22:21:34.805Z,16.70
2018-05-10T22:24:02.213Z,17.40
2018-05-10T22:26:29.670Z,18.53
2018-05-10T22:28:57.072Z,17.63
2018-05-10T22:31:24.502Z,17.27
2018-05-10T22:33:51.911Z,17.50
2018-05-10T22:36:19.337Z,18.10
2018-05-10T22:38:46.755Z,16.90
2018-05-10T22:41:14.181Z,18.00
2018-05-10T22:43:41.588Z,17.50
2018-05-10T22:46:09.000Z,17.27
2018-05-10T22:48:36.436Z,18.13
2018-05-10T22:51:03.839Z,17.97
2018-05-10T22:53:31.264Z,18.07
2018-05-10T22:55:58.692Z,17.63
2018-05-10T22:58:26.088Z,17.77
2018-05-10T23:00:53.520Z,19.13
2018-05-10T23:03:20.930Z,18.73
2018-05-10T23:05:48.356Z,17.33
2018-05-10T23:08:15.769Z,18.37
2018-05-10T23:10:43.198Z,17.60
2018-05-10T23:13:10.604Z,18.53
2018-05-10T23:15:38.013Z,19.10
2018-05-10T23:18:05.435Z,20.47
2018-05-10T23:20:32.844Z,21.57
2018-05-10T23:23:00.260Z,21.90
2018-05-10T23:25:27.666Z,21.83
2018-05-10T23:27:55.091Z,19.43
2018-05-10T23:30:22.496Z,20.53
2018-05-10T23:32:50.249Z,20.30
2018-05-10T23:35:17.657Z,21.43
2018-05-10T23:37:45.068Z,20.80
2018-05-10T23:40:12.488Z,18.13
2018-05-10T23:42:39.908Z,19.07
2018-05-10T23:45:07.333Z,18.03
2018-05-10T23:47:34.743Z,17.90
2018-05-10T23:50:02.459Z,16.80
2018-05-10T23:52:29.861Z,18.63
2018-05-10T23:54:57.268Z,18.87
2018-05-10T23:57:24.701Z,19.63
2018-05-10T23:59:52.116Z,19.60
